sensor_id;sensor_type;location;lat;lon;timestamp;temperature;humidity
3986;DHT22;2007;48.750;9.278;2022-08-14T00:02:14;26.10;52.80
3986;DHT22;2007;48.750;9.278;2022-08-14T00:04:42;26.10;52.80
3986;DHT22;2007;48.750;9.278;2022-08-14T00:07:12;26.00;52.70
3986;DHT22;2007;48.750;9.278;2022-08-14T00:09:40;26.10;52.80
3986;DHT22;2007;48.750;9.278;2022-08-14T00:12:30;26.10;52.80
3986;DHT22;2007;48.750;9.278;2022-08-14T00:15:08;26.10;52.80
3986;DHT22;2007;48.750;9.278;2022-08-14T00:17:36;26.10;52.80
3986;DHT22;2007;48.750;9.278;2022-08-14T00:20:14;26.10;52.80
3986;DHT22;2007;48.750;9.278;2022-08-14T00:22:51;26.10;52.80
3986;DHT22;2007;48.750;9.278;2022-08-14T00:25:24;26.10;53.50
3986;DHT22;2007;48.750;9.278;2022-08-14T00:28:09;26.10;52.80
3986;DHT22;2007;48.750;9.278;2022-08-14T00:30:43;26.10;52.80
3986;DHT22;2007;48.750;9.278;2022-08-14T00:33:12;26.10;53.40
3986;DHT22;2007;48.750;9.278;2022-08-14T00:35:42;26.10;52.80
3986;DHT22;2007;48.750;9.278;2022-08-14T00:38:32;26.10;52.80
3986;DHT22;2007;48.750;9.278;2022-08-14T00:41:01;26.10;52.70
3986;DHT22;2007;48.750;9.278;2022-08-14T00:43:30;26.10;52.80
3986;DHT22;2007;48.750;9.278;2022-08-14T00:46:01;26.10;52.80
3986;DHT22;2007;48.750;9.278;2022-08-14T00:48:34;26.10;52.80
3986;DHT22;2007;48.750;9.278;2022-08-14T00:51:05;26.10;52.80
3986;DHT22;2007;48.750;9.278;2022-08-14T00:53:36;26.10;52.80
3986;DHT22;2007;48.750;9.278;2022-08-14T00:56:09;26.10;52.70
3986;DHT22;2007;48.750;9.278;2022-08-14T00:58:41;26.10;52.80
3986;DHT22;2007;48.750;9.278;2022-08-14T01:01:14;26.00;52.70
3986;DHT22;2007;48.750;9.278;2022-08-14T01:03:44;26.10;52.70
3986;DHT22;2007;48.750;9.278;2022-08-14T01:06:18;26.10;52.80
3986;DHT22;2007;48.750;9.278;2022-08-14T01:08:48;26.00;52.70
3986;DHT22;2007;48.750;9.278;2022-08-14T01:11:25;26.10;52.70
3986;DHT22;2007;48.750;9.278;2022-08-14T01:14:01;26.10;52.80
3986;DHT22;2007;48.750;9.278;2022-08-14T01:16:49;26.10;52.80
3986;DHT22;2007;48.750;9.278;2022-08-14T01:19:19;26.00;52.60
3986;DHT22;2007;48.750;9.278;2022-08-14T01:22:08;26.00;52.60
3986;DHT22;2007;48.750;9.278;2022-08-14T01:24:40;26.00;52.60
3986;DHT22;2007;48.750;9.278;2022-08-14T01:27:13;26.00;52.70
3986;DHT22;2007;48.750;9.278;2022-08-14T01:29:44;26.00;52.60
3986;DHT22;2007;48.750;9.278;2022-08-14T01:32:30;26.00;52.60
3986;DHT22;2007;48.750;9.278;2022-08-14T01:35:08;26.00;52.70
3986;DHT22;2007;48.750;9.278;2022-08-14T01:37:58;26.10;52.70
3986;DHT22;2007;48.750;9.278;2022-08-14T01:40:27;26.00;52.60
3986;DHT22;2007;48.750;9.278;2022-08-14T01:43:07;26.00;52.70
3986;DHT22;2007;48.750;9.278;2022-08-14T01:45:39;26.00;52.60
3986;DHT22;2007;48.750;9.278;2022-08-14T01:48:08;26.10;52.70
3986;DHT22;2007;48.750;9.278;2022-08-14T01:50:40;26.00;52.60
3986;DHT22;2007;48.750;9.278;2022-08-14T01:53:12;26.00;52.60
3986;DHT22;2007;48.750;9.278;2022-08-14T01:55:40;26.10;52.70
3986;DHT22;2007;48.750;9.278;2022-08-14T01:58:08;26.00;52.60
3986;DHT22;2007;48.750;9.278;2022-08-14T02:00:55;26.00;52.60
3986;DHT22;2007;48.750;9.278;2022-08-14T02:03:26;26.00;53.20
3986;DHT22;2007;48.750;9.278;2022-08-14T02:05:57;26.00;52.60
3986;DHT22;2007;48.750;9.278;2022-08-14T02:08:47;26.00;52.60
3986;DHT22;2007;48.750;9.278;2022-08-14T02:11:21;26.00;52.60
3986;DHT22;2007;48.750;9.278;2022-08-14T02:13:53;26.00;52.60
3986;DHT22;2007;48.750;9.278;2022-08-14T02:16:24;26.00;52.70
3986;DHT22;2007;48.750;9.278;2022-08-14T02:18:54;26.00;52.60
3986;DHT22;2007;48.750;9.278;2022-08-14T02:21:24;26.00;52.60
3986;DHT22;2007;48.750;9.278;2022-08-14T02:23:54;26.00;52.60
3986;DHT22;2007;48.750;9.278;2022-08-14T02:26:25;26.00;52.60
3986;DHT22;2007;48.750;9.278;2022-08-14T02:28:58;26.00;52.60
3986;DHT22;2007;48.750;9.278;2022-08-14T02:31:31;26.00;52.70
3986;DHT22;2007;48.750;9.278;2022-08-14T02:34:11;26.00;52.60
3986;DHT22;2007;48.750;9.278;2022-08-14T02:36:53;26.00;52.60
3986;DHT22;2007;48.750;9.278;2022-08-14T02:39:36;26.00;52.60
3986;DHT22;2007;48.750;9.278;2022-08-14T02:42:06;26.00;52.60
3986;DHT22;2007;48.750;9.278;2022-08-14T02:44:40;26.00;52.60
3986;DHT22;2007;48.750;9.278;2022-08-14T02:47:16;26.00;52.60
3986;DHT22;2007;48.750;9.278;2022-08-14T02:49:47;26.00;52.70
3986;DHT22;2007;48.750;9.278;2022-08-14T02:52:21;26.00;52.70
3986;DHT22;2007;48.750;9.278;2022-08-14T02:55:10;26.00;52.60
3986;DHT22;2007;48.750;9.278;2022-08-14T02:57:46;26.00;52.70
3986;DHT22;2007;48.750;9.278;2022-08-14T03:00:24;26.00;52.70
3986;DHT22;2007;48.750;9.278;2022-08-14T03:02:52;26.00;53.00
3986;DHT22;2007;48.750;9.278;2022-08-14T03:05:25;26.00;52.60
3986;DHT22;2007;48.750;9.278;2022-08-14T03:08:06;26.00;52.60
3986;DHT22;2007;48.750;9.278;2022-08-14T03:10:38;26.00;52.60
3986;DHT22;2007;48.750;9.278;2022-08-14T03:13:07;26.00;52.60
3986;DHT22;2007;48.750;9.278;2022-08-14T03:15:45;26.00;52.60
3986;DHT22;2007;48.750;9.278;2022-08-14T03:18:22;26.00;52.60
3986;DHT22;2007;48.750;9.278;2022-08-14T03:21:00;26.00;53.20
3986;DHT22;2007;48.750;9.278;2022-08-14T03:23:28;26.00;52.60
3986;DHT22;2007;48.750;9.278;2022-08-14T03:26:06;26.00;52.60
3986;DHT22;2007;48.750;9.278;2022-08-14T03:28:46;25.90;52.60
3986;DHT22;2007;48.750;9.278;2022-08-14T03:31:15;25.90;52.60
3986;DHT22;2007;48.750;9.278;2022-08-14T03:33:51;25.90;52.60
3986;DHT22;2007;48.750;9.278;2022-08-14T03:36:20;25.90;52.60
3986;DHT22;2007;48.750;9.278;2022-08-14T03:39:09;25.90;52.60
3986;DHT22;2007;48.750;9.278;2022-08-14T03:41:52;25.90;52.60
3986;DHT22;2007;48.750;9.278;2022-08-14T03:44:20;26.00;52.60
3986;DHT22;2007;48.750;9.278;2022-08-14T03:47:09;25.90;52.60
3986;DHT22;2007;48.750;9.278;2022-08-14T03:49:37;25.90;52.60
3986;DHT22;2007;48.750;9.278;2022-08-14T03:52:08;25.90;52.60
3986;DHT22;2007;48.750;9.278;2022-08-14T03:54:56;25.90;52.50
3986;DHT22;2007;48.750;9.278;2022-08-14T03:57:26;25.90;52.60
3986;DHT22;2007;48.750;9.278;2022-08-14T04:00:05;25.90;52.60
3986;DHT22;2007;48.750;9.278;2022-08-14T04:02:54;25.90;52.60
3986;DHT22;2007;48.750;9.278;2022-08-14T04:05:24;25.90;52.50
3986;DHT22;2007;48.750;9.278;2022-08-14T04:07:52;25.90;52.60
3986;DHT22;2007;48.750;9.278;2022-08-14T04:10:40;25.90;52.60
3986;DHT22;2007;48.750;9.278;2022-08-14T04:13:12;25.90;52.60
3986;DHT22;2007;48.750;9.278;2022-08-14T04:15:42;25.90;52.60
3986;DHT22;2007;48.750;9.278;2022-08-14T04:18:28;25.90;52.60
3986;DHT22;2007;48.750;9.278;2022-08-14T04:20:59;25.90;52.60
3986;DHT22;2007;48.750;9.278;2022-08-14T04:23:30;25.90;52.60
3986;DHT22;2007;48.750;9.278;2022-08-14T04:26:03;25.90;52.60
3986;DHT22;2007;48.750;9.278;2022-08-14T04:28:42;25.90;52.60
3986;DHT22;2007;48.750;9.278;2022-08-14T04:31:30;25.90;52.60
3986;DHT22;2007;48.750;9.278;2022-08-14T04:34:18;25.90;52.60
3986;DHT22;2007;48.750;9.278;2022-08-14T04:36:54;25.90;52.60
3986;DHT22;2007;48.750;9.278;2022-08-14T04:39:47;25.90;52.60
3986;DHT22;2007;48.750;9.278;2022-08-14T04:42:34;25.90;52.60
3986;DHT22;2007;48.750;9.278;2022-08-14T04:45:22;25.90;52.60
3986;DHT22;2007;48.750;9.278;2022-08-14T04:47:55;25.90;52.60
3986;DHT22;2007;48.750;9.278;2022-08-14T04:51:02;25.90;52.60
3986;DHT22;2007;48.750;9.278;2022-08-14T04:53:32;25.90;52.60
3986;DHT22;2007;48.750;9.278;2022-08-14T04:56:09;25.90;52.70
3986;DHT22;2007;48.750;9.278;2022-08-14T04:59:01;25.90;52.60
3986;DHT22;2007;48.750;9.278;2022-08-14T05:01:38;25.90;52.60
3986;DHT22;2007;48.750;9.278;2022-08-14T05:04:16;25.90;52.70
3986;DHT22;2007;48.750;9.278;2022-08-14T05:06:47;25.90;52.60
3986;DHT22;2007;48.750;9.278;2022-08-14T05:09:20;25.90;52.60
3986;DHT22;2007;48.750;9.278;2022-08-14T05:11:48;25.90;52.60
3986;DHT22;2007;48.750;9.278;2022-08-14T05:14:17;25.90;52.60
3986;DHT22;2007;48.750;9.278;2022-08-14T05:17:09;25.90;52.60
3986;DHT22;2007;48.750;9.278;2022-08-14T05:19:37;25.80;52.50
3986;DHT22;2007;48.750;9.278;2022-08-14T05:22:25;25.80;52.60
3986;DHT22;2007;48.750;9.278;2022-08-14T05:24:53;25.90;52.60
3986;DHT22;2007;48.750;9.278;2022-08-14T05:27:21;25.80;52.60
3986;DHT22;2007;48.750;9.278;2022-08-14T05:29:51;25.80;52.60
3986;DHT22;2007;48.750;9.278;2022-08-14T05:32:23;25.80;52.50
3986;DHT22;2007;48.750;9.278;2022-08-14T05:35:03;25.80;52.50
3986;DHT22;2007;48.750;9.278;2022-08-14T05:37:33;25.80;52.50
3986;DHT22;2007;48.750;9.278;2022-08-14T05:40:02;25.90;52.70
3986;DHT22;2007;48.750;9.278;2022-08-14T05:42:30;25.80;52.60
3986;DHT22;2007;48.750;9.278;2022-08-14T05:45:01;25.80;52.50
3986;DHT22;2007;48.750;9.278;2022-08-14T05:47:31;25.80;52.60
3986;DHT22;2007;48.750;9.278;2022-08-14T05:50:09;25.80;52.50
3986;DHT22;2007;48.750;9.278;2022-08-14T05:52:45;25.80;52.60
3986;DHT22;2007;48.750;9.278;2022-08-14T05:55:14;25.80;52.60
3986;DHT22;2007;48.750;9.278;2022-08-14T05:57:47;25.80;52.50
3986;DHT22;2007;48.750;9.278;2022-08-14T06:00:16;25.80;52.50
3986;DHT22;2007;48.750;9.278;2022-08-14T06:02:57;25.80;52.60
3986;DHT22;2007;48.750;9.278;2022-08-14T06:05:26;25.80;52.50
3986;DHT22;2007;48.750;9.278;2022-08-14T06:07:55;25.80;52.60
3986;DHT22;2007;48.750;9.278;2022-08-14T06:10:24;25.80;52.50
3986;DHT22;2007;48.750;9.278;2022-08-14T06:12:55;25.80;53.20
3986;DHT22;2007;48.750;9.278;2022-08-14T06:15:24;25.80;52.50
3986;DHT22;2007;48.750;9.278;2022-08-14T06:17:58;25.80;52.50
3986;DHT22;2007;48.750;9.278;2022-08-14T06:20:28;25.80;52.50
3986;DHT22;2007;48.750;9.278;2022-08-14T06:22:56;25.80;52.50
3986;DHT22;2007;48.750;9.278;2022-08-14T06:25:25;25.80;52.60
3986;DHT22;2007;48.750;9.278;2022-08-14T06:27:53;25.80;52.50
3986;DHT22;2007;48.750;9.278;2022-08-14T06:30:29;25.80;52.60
3986;DHT22;2007;48.750;9.278;2022-08-14T06:33:15;25.70;52.60
3986;DHT22;2007;48.750;9.278;2022-08-14T06:35:44;25.80;52.50
3986;DHT22;2007;48.750;9.278;2022-08-14T06:38:14;25.80;52.60
3986;DHT22;2007;48.750;9.278;2022-08-14T06:40:44;25.80;52.60
3986;DHT22;2007;48.750;9.278;2022-08-14T06:43:13;25.70;52.50
3986;DHT22;2007;48.750;9.278;2022-08-14T06:45:44;25.70;52.80
3986;DHT22;2007;48.750;9.278;2022-08-14T06:48:23;25.70;52.50
3986;DHT22;2007;48.750;9.278;2022-08-14T06:50:52;25.70;52.50
3986;DHT22;2007;48.750;9.278;2022-08-14T06:53:23;25.70;52.50
3986;DHT22;2007;48.750;9.278;2022-08-14T06:55:54;25.70;52.50
3986;DHT22;2007;48.750;9.278;2022-08-14T06:58:27;25.70;52.50
3986;DHT22;2007;48.750;9.278;2022-08-14T07:00:58;25.70;52.50
3986;DHT22;2007;48.750;9.278;2022-08-14T07:03:54;25.70;52.40
3986;DHT22;2007;48.750;9.278;2022-08-14T07:06:49;25.70;52.30
3986;DHT22;2007;48.750;9.278;2022-08-14T07:09:20;25.70;52.30
3986;DHT22;2007;48.750;9.278;2022-08-14T07:11:49;25.70;52.30
3986;DHT22;2007;48.750;9.278;2022-08-14T07:14:17;25.70;52.30
3986;DHT22;2007;48.750;9.278;2022-08-14T07:16:45;25.70;52.30
3986;DHT22;2007;48.750;9.278;2022-08-14T07:19:17;25.70;52.30
3986;DHT22;2007;48.750;9.278;2022-08-14T07:21:47;25.70;52.30
3986;DHT22;2007;48.750;9.278;2022-08-14T07:24:16;25.70;52.40
3986;DHT22;2007;48.750;9.278;2022-08-14T07:26:52;25.70;52.30
3986;DHT22;2007;48.750;9.278;2022-08-14T07:29:20;25.70;53.00
3986;DHT22;2007;48.750;9.278;2022-08-14T07:31:54;25.70;52.40
3986;DHT22;2007;48.750;9.278;2022-08-14T07:34:23;25.70;52.40
3986;DHT22;2007;48.750;9.278;2022-08-14T07:37:08;25.70;52.40
3986;DHT22;2007;48.750;9.278;2022-08-14T07:39:36;25.70;52.30
3986;DHT22;2007;48.750;9.278;2022-08-14T07:42:09;25.70;52.40
3986;DHT22;2007;48.750;9.278;2022-08-14T07:44:38;25.70;52.40
3986;DHT22;2007;48.750;9.278;2022-08-14T07:47:14;25.70;52.40
3986;DHT22;2007;48.750;9.278;2022-08-14T07:49:54;25.70;52.40
3986;DHT22;2007;48.750;9.278;2022-08-14T07:52:26;25.70;52.40
3986;DHT22;2007;48.750;9.278;2022-08-14T07:54:56;25.70;52.40
3986;DHT22;2007;48.750;9.278;2022-08-14T07:57:24;25.70;52.50
3986;DHT22;2007;48.750;9.278;2022-08-14T07:59:53;25.70;52.50
3986;DHT22;2007;48.750;9.278;2022-08-14T08:02:21;25.70;53.10
3986;DHT22;2007;48.750;9.278;2022-08-14T08:04:51;25.70;52.50
3986;DHT22;2007;48.750;9.278;2022-08-14T08:07:26;25.70;52.50
3986;DHT22;2007;48.750;9.278;2022-08-14T08:09:57;25.70;52.50
3986;DHT22;2007;48.750;9.278;2022-08-14T08:12:28;25.70;52.50
3986;DHT22;2007;48.750;9.278;2022-08-14T08:14:59;25.70;52.50
3986;DHT22;2007;48.750;9.278;2022-08-14T08:17:34;25.70;52.60
3986;DHT22;2007;48.750;9.278;2022-08-14T08:20:11;25.70;52.60
3986;DHT22;2007;48.750;9.278;2022-08-14T08:22:40;25.70;52.60
3986;DHT22;2007;48.750;9.278;2022-08-14T08:25:15;25.70;52.60
3986;DHT22;2007;48.750;9.278;2022-08-14T08:27:54;25.70;52.60
3986;DHT22;2007;48.750;9.278;2022-08-14T08:30:22;25.70;52.70
3986;DHT22;2007;48.750;9.278;2022-08-14T08:32:52;25.70;52.70
3986;DHT22;2007;48.750;9.278;2022-08-14T08:35:23;25.70;53.30
3986;DHT22;2007;48.750;9.278;2022-08-14T08:38:14;25.70;52.70
3986;DHT22;2007;48.750;9.278;2022-08-14T08:41:03;25.70;52.70
3986;DHT22;2007;48.750;9.278;2022-08-14T08:43:38;25.70;52.70
3986;DHT22;2007;48.750;9.278;2022-08-14T08:46:14;25.70;52.70
3986;DHT22;2007;48.750;9.278;2022-08-14T08:48:51;25.70;52.70
3986;DHT22;2007;48.750;9.278;2022-08-14T08:51:22;25.70;52.70
3986;DHT22;2007;48.750;9.278;2022-08-14T08:53:58;25.70;52.70
3986;DHT22;2007;48.750;9.278;2022-08-14T08:56:38;25.70;52.70
3986;DHT22;2007;48.750;9.278;2022-08-14T08:59:19;25.70;52.70
3986;DHT22;2007;48.750;9.278;2022-08-14T09:01:49;25.70;52.70
3986;DHT22;2007;48.750;9.278;2022-08-14T09:04:23;25.70;52.70
3986;DHT22;2007;48.750;9.278;2022-08-14T09:06:53;25.60;52.70
3986;DHT22;2007;48.750;9.278;2022-08-14T09:09:37;25.70;52.70
3986;DHT22;2007;48.750;9.278;2022-08-14T09:12:25;25.70;53.40
3986;DHT22;2007;48.750;9.278;2022-08-14T09:14:59;25.60;52.70
3986;DHT22;2007;48.750;9.278;2022-08-14T09:17:28;25.60;52.70
3986;DHT22;2007;48.750;9.278;2022-08-14T09:19:56;25.70;52.70
3986;DHT22;2007;48.750;9.278;2022-08-14T09:22:31;25.70;52.70
3986;DHT22;2007;48.750;9.278;2022-08-14T09:25:04;25.60;52.70
3986;DHT22;2007;48.750;9.278;2022-08-14T09:27:33;25.60;52.70
3986;DHT22;2007;48.750;9.278;2022-08-14T09:30:03;25.60;52.70
3986;DHT22;2007;48.750;9.278;2022-08-14T09:33:06;25.70;52.70
3986;DHT22;2007;48.750;9.278;2022-08-14T09:35:51;25.70;52.70
3986;DHT22;2007;48.750;9.278;2022-08-14T09:38:32;25.60;52.70
3986;DHT22;2007;48.750;9.278;2022-08-14T09:41:12;25.70;52.70
3986;DHT22;2007;48.750;9.278;2022-08-14T09:43:53;25.60;52.70
3986;DHT22;2007;48.750;9.278;2022-08-14T09:46:24;25.70;52.70
3986;DHT22;2007;48.750;9.278;2022-08-14T09:48:59;25.60;52.70
3986;DHT22;2007;48.750;9.278;2022-08-14T09:51:28;25.60;52.70
3986;DHT22;2007;48.750;9.278;2022-08-14T09:54:02;25.60;52.70
3986;DHT22;2007;48.750;9.278;2022-08-14T09:56:49;25.60;52.70
3986;DHT22;2007;48.750;9.278;2022-08-14T09:59:24;25.60;52.70
3986;DHT22;2007;48.750;9.278;2022-08-14T10:01:54;25.60;52.70
3986;DHT22;2007;48.750;9.278;2022-08-14T10:04:24;25.60;52.70
3986;DHT22;2007;48.750;9.278;2022-08-14T10:07:02;25.60;52.70
3986;DHT22;2007;48.750;9.278;2022-08-14T10:09:32;25.60;52.70
3986;DHT22;2007;48.750;9.278;2022-08-14T10:12:01;25.70;52.80
3986;DHT22;2007;48.750;9.278;2022-08-14T10:14:33;25.60;52.70
3986;DHT22;2007;48.750;9.278;2022-08-14T10:17:04;25.60;52.80
3986;DHT22;2007;48.750;9.278;2022-08-14T10:19:34;25.60;52.80
3986;DHT22;2007;48.750;9.278;2022-08-14T10:22:13;25.60;52.70
3986;DHT22;2007;48.750;9.278;2022-08-14T10:25:10;25.60;52.80
3986;DHT22;2007;48.750;9.278;2022-08-14T10:27:41;25.60;52.80
3986;DHT22;2007;48.750;9.278;2022-08-14T10:30:14;25.60;52.80
3986;DHT22;2007;48.750;9.278;2022-08-14T10:32:48;25.60;52.80
3986;DHT22;2007;48.750;9.278;2022-08-14T10:35:18;25.60;52.80
3986;DHT22;2007;48.750;9.278;2022-08-14T10:37:59;25.60;52.80
3986;DHT22;2007;48.750;9.278;2022-08-14T10:40:34;25.60;52.80
3986;DHT22;2007;48.750;9.278;2022-08-14T10:43:16;25.60;52.80
3986;DHT22;2007;48.750;9.278;2022-08-14T10:45:54;25.60;52.80
3986;DHT22;2007;48.750;9.278;2022-08-14T10:48:54;25.60;52.80
3986;DHT22;2007;48.750;9.278;2022-08-14T10:51:24;25.60;52.80
3986;DHT22;2007;48.750;9.278;2022-08-14T10:53:56;25.60;52.80
3986;DHT22;2007;48.750;9.278;2022-08-14T10:56:43;25.60;52.80
3986;DHT22;2007;48.750;9.278;2022-08-14T10:59:11;25.60;53.40
3986;DHT22;2007;48.750;9.278;2022-08-14T11:01:39;25.60;52.80
3986;DHT22;2007;48.750;9.278;2022-08-14T11:04:19;25.60;52.80
3986;DHT22;2007;48.750;9.278;2022-08-14T11:06:57;25.60;52.80
3986;DHT22;2007;48.750;9.278;2022-08-14T11:09:25;25.60;52.80
3986;DHT22;2007;48.750;9.278;2022-08-14T11:11:59;25.60;52.80
3986;DHT22;2007;48.750;9.278;2022-08-14T11:14:53;25.60;52.80
3986;DHT22;2007;48.750;9.278;2022-08-14T11:17:29;25.60;53.50
3986;DHT22;2007;48.750;9.278;2022-08-14T11:19:59;25.60;52.80
3986;DHT22;2007;48.750;9.278;2022-08-14T11:22:30;25.60;52.80
3986;DHT22;2007;48.750;9.278;2022-08-14T11:25:19;25.60;52.80
3986;DHT22;2007;48.750;9.278;2022-08-14T11:27:52;25.60;52.80
3986;DHT22;2007;48.750;9.278;2022-08-14T11:30:22;25.60;52.80
3986;DHT22;2007;48.750;9.278;2022-08-14T11:33:10;25.60;52.80
3986;DHT22;2007;48.750;9.278;2022-08-14T11:35:38;25.60;52.80
3986;DHT22;2007;48.750;9.278;2022-08-14T11:38:14;25.60;52.80
3986;DHT22;2007;48.750;9.278;2022-08-14T11:40:44;25.60;52.80
3986;DHT22;2007;48.750;9.278;2022-08-14T11:43:14;25.60;52.80
3986;DHT22;2007;48.750;9.278;2022-08-14T11:45:45;25.60;53.50
3986;DHT22;2007;48.750;9.278;2022-08-14T11:48:19;25.60;52.90
3986;DHT22;2007;48.750;9.278;2022-08-14T11:51:12;25.60;52.80
3986;DHT22;2007;48.750;9.278;2022-08-14T11:53:42;25.60;52.90
3986;DHT22;2007;48.750;9.278;2022-08-14T11:56:16;25.60;52.80
3986;DHT22;2007;48.750;9.278;2022-08-14T11:58:56;25.60;52.90
3986;DHT22;2007;48.750;9.278;2022-08-14T12:01:27;25.60;52.90
3986;DHT22;2007;48.750;9.278;2022-08-14T12:04:08;25.60;52.80
3986;DHT22;2007;48.750;9.278;2022-08-14T12:06:56;25.60;52.80
3986;DHT22;2007;48.750;9.278;2022-08-14T12:09:29;25.60;52.80
3986;DHT22;2007;48.750;9.278;2022-08-14T12:11:58;25.60;52.80
3986;DHT22;2007;48.750;9.278;2022-08-14T12:14:28;25.60;52.80
3986;DHT22;2007;48.750;9.278;2022-08-14T12:17:05;25.60;52.80
3986;DHT22;2007;48.750;9.278;2022-08-14T12:19:49;25.60;52.80
3986;DHT22;2007;48.750;9.278;2022-08-14T12:22:33;25.60;52.80
3986;DHT22;2007;48.750;9.278;2022-08-14T12:25:02;25.60;52.80
3986;DHT22;2007;48.750;9.278;2022-08-14T12:27:39;25.60;52.80
3986;DHT22;2007;48.750;9.278;2022-08-14T12:30:31;25.60;52.90
3986;DHT22;2007;48.750;9.278;2022-08-14T12:33:18;25.60;52.80
3986;DHT22;2007;48.750;9.278;2022-08-14T12:35:52;25.60;52.80
3986;DHT22;2007;48.750;9.278;2022-08-14T12:38:34;25.60;53.50
3986;DHT22;2007;48.750;9.278;2022-08-14T12:41:08;25.60;52.80
3986;DHT22;2007;48.750;9.278;2022-08-14T12:43:46;25.60;52.80
3986;DHT22;2007;48.750;9.278;2022-08-14T12:46:23;25.60;52.80
3986;DHT22;2007;48.750;9.278;2022-08-14T12:48:56;25.60;52.90
3986;DHT22;2007;48.750;9.278;2022-08-14T12:51:25;25.60;52.80
3986;DHT22;2007;48.750;9.278;2022-08-14T12:53:57;25.60;52.90
3986;DHT22;2007;48.750;9.278;2022-08-14T12:56:26;25.60;52.90
3986;DHT22;2007;48.750;9.278;2022-08-14T12:59:00;25.60;52.90
3986;DHT22;2007;48.750;9.278;2022-08-14T13:01:33;25.60;52.90
3986;DHT22;2007;48.750;9.278;2022-08-14T13:04:21;25.60;52.90
3986;DHT22;2007;48.750;9.278;2022-08-14T13:06:50;25.60;52.90
3986;DHT22;2007;48.750;9.278;2022-08-14T13:09:19;25.60;52.90
3986;DHT22;2007;48.750;9.278;2022-08-14T13:12:04;25.60;52.90
3986;DHT22;2007;48.750;9.278;2022-08-14T13:14:53;25.60;52.80
3986;DHT22;2007;48.750;9.278;2022-08-14T13:17:25;25.60;52.80
3986;DHT22;2007;48.750;9.278;2022-08-14T13:19:55;25.60;52.90
3986;DHT22;2007;48.750;9.278;2022-08-14T13:22:24;25.60;52.90
3986;DHT22;2007;48.750;9.278;2022-08-14T13:25:05;25.60;52.80
3986;DHT22;2007;48.750;9.278;2022-08-14T13:27:33;25.60;52.80
3986;DHT22;2007;48.750;9.278;2022-08-14T13:30:08;25.60;52.70
3986;DHT22;2007;48.750;9.278;2022-08-14T13:32:51;25.60;52.80
3986;DHT22;2007;48.750;9.278;2022-08-14T13:35:23;25.60;52.80
3986;DHT22;2007;48.750;9.278;2022-08-14T13:37:51;25.60;52.80
3986;DHT22;2007;48.750;9.278;2022-08-14T13:40:22;25.60;52.90
3986;DHT22;2007;48.750;9.278;2022-08-14T13:42:53;25.60;53.50
3986;DHT22;2007;48.750;9.278;2022-08-14T13:45:23;25.60;52.90
3986;DHT22;2007;48.750;9.278;2022-08-14T13:48:13;25.60;52.90
3986;DHT22;2007;48.750;9.278;2022-08-14T13:51:03;25.70;53.00
3986;DHT22;2007;48.750;9.278;2022-08-14T13:53:43;25.70;53.00
3986;DHT22;2007;48.750;9.278;2022-08-14T13:56:36;25.70;53.00
3986;DHT22;2007;48.750;9.278;2022-08-14T13:59:05;25.70;52.90
3986;DHT22;2007;48.750;9.278;2022-08-14T14:01:34;25.70;52.90
3986;DHT22;2007;48.750;9.278;2022-08-14T14:04:13;25.70;52.90
3986;DHT22;2007;48.750;9.278;2022-08-14T14:06:46;25.70;53.00
3986;DHT22;2007;48.750;9.278;2022-08-14T14:09:17;25.70;53.00
3986;DHT22;2007;48.750;9.278;2022-08-14T14:11:47;25.70;53.00
3986;DHT22;2007;48.750;9.278;2022-08-14T14:14:19;25.70;52.90
3986;DHT22;2007;48.750;9.278;2022-08-14T14:17:10;25.70;52.90
3986;DHT22;2007;48.750;9.278;2022-08-14T14:19:42;25.70;52.90
3986;DHT22;2007;48.750;9.278;2022-08-14T14:22:13;25.70;52.90
3986;DHT22;2007;48.750;9.278;2022-08-14T14:25:03;25.70;53.00
3986;DHT22;2007;48.750;9.278;2022-08-14T14:27:33;25.70;53.00
3986;DHT22;2007;48.750;9.278;2022-08-14T14:30:08;25.70;53.00
3986;DHT22;2007;48.750;9.278;2022-08-14T14:32:57;25.70;53.00
3986;DHT22;2007;48.750;9.278;2022-08-14T14:35:42;25.70;52.90
3986;DHT22;2007;48.750;9.278;2022-08-14T14:38:13;25.80;53.00
3986;DHT22;2007;48.750;9.278;2022-08-14T14:40:43;25.70;52.90
3986;DHT22;2007;48.750;9.278;2022-08-14T14:43:22;25.70;52.90
3986;DHT22;2007;48.750;9.278;2022-08-14T14:45:53;25.70;52.90
3986;DHT22;2007;48.750;9.278;2022-08-14T14:48:24;25.80;53.00
3986;DHT22;2007;48.750;9.278;2022-08-14T14:50:57;25.70;52.90
3986;DHT22;2007;48.750;9.278;2022-08-14T14:53:27;25.80;53.00
3986;DHT22;2007;48.750;9.278;2022-08-14T14:56:05;25.80;53.00
3986;DHT22;2007;48.750;9.278;2022-08-14T14:58:54;25.80;53.70
3986;DHT22;2007;48.750;9.278;2022-08-14T15:01:24;25.80;53.00
3986;DHT22;2007;48.750;9.278;2022-08-14T15:03:53;25.80;53.00
3986;DHT22;2007;48.750;9.278;2022-08-14T15:06:24;25.80;53.00
3986;DHT22;2007;48.750;9.278;2022-08-14T15:08:59;25.80;53.00
3986;DHT22;2007;48.750;9.278;2022-08-14T15:11:30;25.80;53.00
3986;DHT22;2007;48.750;9.278;2022-08-14T15:13:59;25.80;53.10
3986;DHT22;2007;48.750;9.278;2022-08-14T15:16:47;25.80;53.00
3986;DHT22;2007;48.750;9.278;2022-08-14T15:19:16;25.80;53.00
3986;DHT22;2007;48.750;9.278;2022-08-14T15:21:45;25.80;53.10
3986;DHT22;2007;48.750;9.278;2022-08-14T15:24:13;25.80;53.00
3986;DHT22;2007;48.750;9.278;2022-08-14T15:26:49;25.80;53.00
3986;DHT22;2007;48.750;9.278;2022-08-14T15:29:17;25.80;53.00
3986;DHT22;2007;48.750;9.278;2022-08-14T15:31:45;25.80;53.10
3986;DHT22;2007;48.750;9.278;2022-08-14T15:34:13;25.80;53.10
3986;DHT22;2007;48.750;9.278;2022-08-14T15:37:05;25.80;53.00
3986;DHT22;2007;48.750;9.278;2022-08-14T15:39:39;25.80;53.00
3986;DHT22;2007;48.750;9.278;2022-08-14T15:42:08;25.90;53.10
3986;DHT22;2007;48.750;9.278;2022-08-14T15:44:43;25.80;53.00
3986;DHT22;2007;48.750;9.278;2022-08-14T15:47:27;25.80;53.10
3986;DHT22;2007;48.750;9.278;2022-08-14T15:49:57;25.80;53.10
3986;DHT22;2007;48.750;9.278;2022-08-14T15:52:28;25.80;53.10
3986;DHT22;2007;48.750;9.278;2022-08-14T15:55:03;25.90;53.10
3986;DHT22;2007;48.750;9.278;2022-08-14T15:57:32;25.90;53.10
3986;DHT22;2007;48.750;9.278;2022-08-14T16:00:00;25.90;53.10
3986;DHT22;2007;48.750;9.278;2022-08-14T16:03:06;25.90;53.10
3986;DHT22;2007;48.750;9.278;2022-08-14T16:05:39;25.90;53.10
3986;DHT22;2007;48.750;9.278;2022-08-14T16:08:10;25.90;53.10
3986;DHT22;2007;48.750;9.278;2022-08-14T16:10:56;25.90;53.10
3986;DHT22;2007;48.750;9.278;2022-08-14T16:13:25;25.90;53.10
3986;DHT22;2007;48.750;9.278;2022-08-14T16:16:10;25.90;53.10
3986;DHT22;2007;48.750;9.278;2022-08-14T16:18:59;25.90;53.10
3986;DHT22;2007;48.750;9.278;2022-08-14T16:21:29;25.90;53.10
3986;DHT22;2007;48.750;9.278;2022-08-14T16:23:59;25.90;53.10
3986;DHT22;2007;48.750;9.278;2022-08-14T16:26:28;25.90;53.10
3986;DHT22;2007;48.750;9.278;2022-08-14T16:29:00;25.90;53.10
3986;DHT22;2007;48.750;9.278;2022-08-14T16:31:31;25.90;53.10
3986;DHT22;2007;48.750;9.278;2022-08-14T16:34:02;25.90;53.00
3986;DHT22;2007;48.750;9.278;2022-08-14T16:36:51;25.90;53.10
3986;DHT22;2007;48.750;9.278;2022-08-14T16:39:22;25.90;53.10
3986;DHT22;2007;48.750;9.278;2022-08-14T16:41:51;25.90;53.10
3986;DHT22;2007;48.750;9.278;2022-08-14T16:44:20;25.90;53.10
3986;DHT22;2007;48.750;9.278;2022-08-14T16:47:01;25.90;53.10
3986;DHT22;2007;48.750;9.278;2022-08-14T16:49:31;26.00;53.20
3986;DHT22;2007;48.750;9.278;2022-08-14T16:52:21;25.90;53.10
3986;DHT22;2007;48.750;9.278;2022-08-14T16:55:12;25.90;53.00